Brazoria, Texas
Current Conditions -  °F | °C
As of 6:53 PM on Monday 24 Nov 2014 (Local Time) from KLBX Reporting Station
Scattered Clouds Scattered Clouds  
Wind Chill: 56°   Ceiling: Unl
Heat Index: 56°   Visibility: 10mi
Dew Point: 36°   Wind: 9mph
Humidity: 47%   Direction: 360°N
Pressure: 30.07"   Gusts: NA
Location:  29.04°N, 95.57°W
Report Text: KLBX 250053Z AUTO 36008KT 10SM SCT110 13/02 A3007 RMK AO2 SLP183 T01330022
Loading
Personal Weather Stations






























Interactive Weather Map New forecast layout! Learn more

10-Day Weather Forecast

Advertisements
Track Severe Weather on mobile